createdAt,value
2023-01-08T00:01:56.134Z,97913.00
2023-01-08T00:04:24.218Z,97903.63
2023-01-08T00:06:52.496Z,97907.38
2023-01-08T00:09:23.233Z,97910.22
2023-01-08T00:12:00.042Z,97901.19
2023-01-08T00:14:29.555Z,97903.22
2023-01-08T00:16:57.867Z,97896.41
2023-01-08T00:19:28.650Z,97902.44
2023-01-08T00:21:57.905Z,97910.56
2023-01-08T00:24:25.923Z,97901.59
2023-01-08T00:26:53.964Z,97902.59
2023-01-08T00:29:22.066Z,97885.91
2023-01-08T00:31:51.492Z,97872.59
2023-01-08T00:34:19.511Z,97859.09
2023-01-08T00:36:47.586Z,97854.59
2023-01-08T00:39:15.624Z,97854.69
2023-01-08T00:41:45.422Z,97843.84
2023-01-08T00:44:16.403Z,97838.09
2023-01-08T00:46:44.515Z,97836.31
2023-01-08T00:49:13.890Z,97835.31
2023-01-08T00:51:41.989Z,97846.31
2023-01-08T00:54:10.654Z,97850.66
2023-01-08T00:56:38.696Z,97844.78
2023-01-08T00:59:06.749Z,97842.00
2023-01-08T01:01:34.981Z,97839.94
2023-01-08T01:04:05.476Z,97835.09
2023-01-08T01:06:34.846Z,97828.75
2023-01-08T01:09:02.933Z,97833.53
2023-01-08T01:11:31.019Z,97839.63
2023-01-08T01:13:59.146Z,97836.06
2023-01-08T01:16:32.356Z,97843.06
2023-01-08T01:19:00.483Z,97841.44
2023-01-08T01:21:29.570Z,97828.56
2023-01-08T01:23:59.862Z,97828.78
2023-01-08T01:26:28.195Z,97820.69
2023-01-08T01:28:59.728Z,97817.19
2023-01-08T01:31:31.329Z,97816.88
2023-01-08T01:33:59.879Z,97818.91
2023-01-08T01:36:27.944Z,97811.59
2023-01-08T01:38:57.231Z,97829.50
2023-01-08T01:41:28.404Z,97823.91
2023-01-08T01:43:57.029Z,97836.84
2023-01-08T01:46:28.981Z,97826.59
2023-01-08T01:49:00.993Z,97834.44
2023-01-08T01:51:32.517Z,97810.19
2023-01-08T01:54:01.815Z,97838.13
2023-01-08T01:56:31.943Z,97829.19
2023-01-08T01:59:02.106Z,97837.03
2023-01-08T02:01:31.262Z,97818.72
2023-01-08T02:03:59.515Z,97818.41
2023-01-08T02:06:34.958Z,97821.34
2023-01-08T02:09:05.348Z,97818.13
2023-01-08T02:11:40.267Z,97817.25
2023-01-08T02:14:14.992Z,97817.56
2023-01-08T02:16:46.738Z,97807.50
2023-01-08T02:19:24.124Z,97813.97
2023-01-08T02:21:59.965Z,97792.00
2023-01-08T02:24:31.628Z,97801.38
2023-01-08T02:27:02.676Z,97794.03
2023-01-08T02:32:41.228Z,97783.22
2023-01-08T02:35:10.313Z,97775.50
2023-01-08T02:37:38.737Z,97765.28
2023-01-08T02:40:18.057Z,97768.53
2023-01-08T02:42:51.359Z,97770.00
2023-01-08T02:45:28.073Z,97761.69
2023-01-08T02:48:02.766Z,97766.59
2023-01-08T02:50:33.293Z,97748.34
2023-01-08T02:53:04.197Z,97751.13
2023-01-08T02:55:34.435Z,97753.34
2023-01-08T02:58:04.715Z,97745.31
2023-01-08T03:00:33.297Z,97750.28
2023-01-08T03:03:04.717Z,97745.66
2023-01-08T03:05:33.584Z,97738.38
2023-01-08T03:08:01.842Z,97732.31
2023-01-08T03:10:31.523Z,97735.84
2023-01-08T03:13:01.725Z,97733.00
2023-01-08T03:15:33.499Z,97730.44
2023-01-08T03:18:03.095Z,97725.44
2023-01-08T03:20:33.222Z,97715.00
2023-01-08T03:23:03.710Z,97712.81
2023-01-08T03:25:31.957Z,97714.72
2023-01-08T03:28:02.382Z,97704.44
2023-01-08T03:30:32.442Z,97707.00
2023-01-08T03:33:02.069Z,97707.94
2023-01-08T03:35:31.054Z,97706.56
2023-01-08T03:38:04.320Z,97706.69
2023-01-08T03:40:36.421Z,97698.75
2023-01-08T03:43:04.465Z,97704.75
2023-01-08T03:45:34.037Z,97696.44
2023-01-08T03:48:05.611Z,97700.56
2023-01-08T03:50:33.860Z,97695.72
2023-01-08T03:53:02.053Z,97696.19
2023-01-08T03:55:30.124Z,97697.03
2023-01-08T03:57:58.092Z,97692.13
2023-01-08T04:00:26.460Z,97684.84
2023-01-08T04:02:55.939Z,97681.47
2023-01-08T04:05:24.157Z,97690.75
2023-01-08T04:07:52.301Z,97684.06
2023-01-08T04:10:20.382Z,97686.56
2023-01-08T04:12:48.500Z,97686.09
2023-01-08T04:15:16.756Z,97681.47
2023-01-08T04:17:44.765Z,97679.72
2023-01-08T04:20:14.314Z,97680.84
2023-01-08T04:22:42.402Z,97678.44
2023-01-08T04:25:10.524Z,97670.34
2023-01-08T04:27:40.820Z,97671.88
2023-01-08T04:30:11.853Z,97674.84
2023-01-08T04:32:42.383Z,97680.00
2023-01-08T04:35:10.806Z,97662.91
2023-01-08T04:37:40.137Z,97689.22
2023-01-08T04:40:08.624Z,97694.97
2023-01-08T04:42:36.732Z,97691.88
2023-01-08T04:45:05.548Z,97682.41
2023-01-08T04:47:33.907Z,97688.53
2023-01-08T04:50:02.038Z,97682.06
2023-01-08T04:52:30.466Z,97694.69
2023-01-08T04:55:07.187Z,97695.66
2023-01-08T04:57:35.496Z,97694.69
2023-01-08T05:00:03.516Z,97694.00
2023-01-08T05:02:31.740Z,97691.28
2023-01-08T05:04:59.884Z,97689.75
2023-01-08T05:07:27.998Z,97690.22
2023-01-08T05:09:56.320Z,97689.72
2023-01-08T05:12:25.837Z,97702.78
2023-01-08T05:14:53.978Z,97699.84
2023-01-08T05:17:22.157Z,97702.97
2023-01-08T05:19:50.203Z,97708.97
2023-01-08T05:22:18.514Z,97714.72
2023-01-08T05:24:48.747Z,97705.44
2023-01-08T05:27:16.996Z,97702.66
2023-01-08T05:29:46.735Z,97712.25
2023-01-08T05:32:15.765Z,97700.66
2023-01-08T05:34:44.096Z,97701.72
2023-01-08T05:37:12.483Z,97696.09
2023-01-08T05:39:40.577Z,97705.97
2023-01-08T05:42:08.756Z,97705.00
2023-01-08T05:44:36.807Z,97658.66
2023-01-08T05:47:06.246Z,97705.47
2023-01-08T05:49:34.398Z,97705.00
2023-01-08T05:52:02.542Z,97708.06
2023-01-08T05:54:30.579Z,97702.75
2023-01-08T05:56:58.540Z,97701.38
2023-01-08T05:59:26.647Z,97703.13
2023-01-08T06:01:55.202Z,97709.59
2023-01-08T06:04:24.751Z,97708.16
2023-01-08T06:06:52.976Z,97703.50
2023-01-08T06:09:21.196Z,97701.63
2023-01-08T06:11:49.681Z,97692.00
2023-01-08T06:14:18.008Z,97686.84
2023-01-08T06:16:46.280Z,97678.19
2023-01-08T06:19:14.507Z,97677.25
2023-01-08T06:21:43.913Z,97671.84
2023-01-08T06:24:12.067Z,97670.09
2023-01-08T06:26:41.336Z,97667.28
2023-01-08T06:29:09.380Z,97671.38
2023-01-08T06:31:37.459Z,97662.59
2023-01-08T06:34:05.557Z,97664.66
2023-01-08T06:36:33.620Z,97660.94
2023-01-08T06:39:03.203Z,97654.69
2023-01-08T06:41:31.455Z,97666.34
2023-01-08T06:44:01.586Z,97663.13
2023-01-08T06:46:29.717Z,97659.13
2023-01-08T06:48:57.785Z,97658.31
2023-01-08T06:51:25.922Z,97649.00
2023-01-08T06:53:54.091Z,97658.56
2023-01-08T06:56:23.553Z,97672.19
2023-01-08T06:58:51.855Z,97672.84
2023-01-08T07:01:20.032Z,97664.91
2023-01-08T07:03:48.151Z,97666.41
2023-01-08T07:06:17.124Z,97669.84
2023-01-08T07:08:45.577Z,97661.38
2023-01-08T07:11:14.280Z,97649.53
2023-01-08T07:13:46.272Z,97659.44
2023-01-08T07:16:15.941Z,97669.91
2023-01-08T07:18:44.889Z,97671.81
2023-01-08T07:21:13.008Z,97671.19
2023-01-08T07:23:41.939Z,97661.09
2023-01-08T07:26:10.014Z,97675.44
2023-01-08T07:28:38.551Z,97668.59
2023-01-08T07:31:08.253Z,97667.75
2023-01-08T07:33:36.917Z,97671.19
2023-01-08T07:36:05.655Z,97671.59
2023-01-08T07:38:33.754Z,97670.63
2023-01-08T07:41:01.751Z,97674.25
2023-01-08T07:43:30.334Z,97675.91
2023-01-08T07:45:58.798Z,97678.22
2023-01-08T07:48:28.164Z,97674.97
2023-01-08T07:51:01.676Z,97681.06
2023-01-08T07:53:30.124Z,97669.56
2023-01-08T07:56:01.653Z,97677.06
2023-01-08T07:58:30.170Z,97670.50
2023-01-08T08:00:59.453Z,97665.69
2023-01-08T08:03:29.064Z,97670.03
2023-01-08T08:05:57.202Z,97662.41
2023-01-08T08:08:25.291Z,97669.34
2023-01-08T08:10:53.348Z,97662.66
2023-01-08T08:13:21.417Z,97672.28
2023-01-08T08:15:49.578Z,97668.41
2023-01-08T08:18:17.671Z,97662.47
2023-01-08T08:20:47.299Z,97671.38
2023-01-08T08:23:16.251Z,97663.28
2023-01-08T08:25:44.444Z,97662.97
2023-01-08T08:28:12.997Z,97656.09
2023-01-08T08:30:42.693Z,97658.56
2023-01-08T08:33:11.481Z,97653.75
2023-01-08T08:35:39.732Z,97656.84
2023-01-08T08:38:09.151Z,97664.06
2023-01-08T08:40:37.257Z,97656.97
2023-01-08T08:43:05.629Z,97665.47
2023-01-08T08:45:33.933Z,97665.69
2023-01-08T08:48:06.366Z,97663.84
2023-01-08T08:50:34.632Z,97661.72
2023-01-08T08:53:02.689Z,97660.41
2023-01-08T08:55:32.105Z,97656.28
2023-01-08T08:58:03.580Z,97651.56
2023-01-08T09:00:31.634Z,97649.16
2023-01-08T09:02:59.857Z,97651.84
2023-01-08T09:05:30.311Z,97649.38
2023-01-08T09:07:58.517Z,97643.00
2023-01-08T09:10:26.668Z,97655.09
2023-01-08T09:12:56.181Z,97650.75
2023-01-08T09:15:24.460Z,97653.38
2023-01-08T09:17:55.689Z,97641.84
2023-01-08T09:20:23.838Z,97636.38
2023-01-08T09:22:52.013Z,97640.94
2023-01-08T09:25:20.032Z,97641.19
2023-01-08T09:27:48.137Z,97641.13
2023-01-08T09:30:17.613Z,97644.97
2023-01-08T09:32:45.611Z,97643.41
2023-01-08T09:35:13.739Z,97648.66
2023-01-08T09:37:41.770Z,97643.72
2023-01-08T09:40:11.839Z,97649.81
2023-01-08T09:42:39.966Z,97651.41
2023-01-08T09:45:13.899Z,97652.28
2023-01-08T09:47:44.257Z,97649.00
2023-01-08T09:50:13.836Z,97648.88
2023-01-08T09:52:43.748Z,97647.63
2023-01-08T09:55:13.854Z,97646.47
2023-01-08T09:57:44.703Z,97650.22
2023-01-08T10:00:15.522Z,97638.69
2023-01-08T10:02:54.172Z,97647.94
2023-01-08T10:05:22.382Z,97647.09
2023-01-08T10:07:50.519Z,97663.59
2023-01-08T10:10:22.830Z,97658.66
2023-01-08T10:12:51.375Z,97654.06
2023-01-08T10:15:20.976Z,97661.56
2023-01-08T10:17:54.328Z,97658.41
2023-01-08T10:20:23.639Z,97649.56
2023-01-08T10:22:54.181Z,97651.56
2023-01-08T10:25:23.106Z,97648.88
2023-01-08T10:27:52.136Z,97644.38
2023-01-08T10:30:21.677Z,97644.56
2023-01-08T10:32:54.436Z,97651.97
2023-01-08T10:35:25.483Z,97639.00
2023-01-08T10:37:53.570Z,97638.81
2023-01-08T10:40:24.751Z,97635.03
2023-01-08T10:42:53.721Z,97623.81
2023-01-08T10:45:23.096Z,97625.78
2023-01-08T10:47:53.745Z,97632.69
2023-01-08T10:50:23.753Z,97623.34
2023-01-08T10:52:56.038Z,97628.19
2023-01-08T10:55:25.659Z,97627.34
2023-01-08T10:57:57.162Z,97624.03
2023-01-08T11:00:26.421Z,97620.28
2023-01-08T11:02:57.135Z,97623.78
2023-01-08T11:05:32.634Z,97595.69
2023-01-08T11:08:01.533Z,97599.25
2023-01-08T11:10:30.163Z,97593.88
2023-01-08T11:13:00.743Z,97601.19
2023-01-08T11:15:30.981Z,97595.47
2023-01-08T11:18:17.718Z,97588.94
2023-01-08T11:20:46.044Z,97577.81
2023-01-08T11:23:18.365Z,97577.69
2023-01-08T11:25:48.816Z,97572.44
2023-01-08T11:28:20.400Z,97569.75
2023-01-08T11:30:52.052Z,97562.47
2023-01-08T11:33:23.889Z,97555.22
2023-01-08T11:35:55.370Z,97561.97
2023-01-08T11:38:23.440Z,97557.06
2023-01-08T11:40:52.026Z,97549.50
2023-01-08T11:43:26.164Z,97544.66
2023-01-08T11:46:10.795Z,97534.63
2023-01-08T11:48:51.112Z,97534.31
2023-01-08T11:51:29.680Z,97529.34
2023-01-08T11:54:04.431Z,97519.78
2023-01-08T11:56:39.482Z,97522.94
2023-01-08T11:59:12.353Z,97522.91
2023-01-08T12:01:49.868Z,97504.63
2023-01-08T12:04:34.443Z,97499.25
2023-01-08T12:07:08.635Z,97492.66
2023-01-08T12:09:40.283Z,97484.75
2023-01-08T12:12:14.578Z,97477.88
2023-01-08T12:14:47.222Z,97468.13
2023-01-08T12:17:26.341Z,97462.34
2023-01-08T12:20:07.952Z,97453.03
2023-01-08T12:22:48.990Z,97465.75
2023-01-08T12:25:28.688Z,97471.69
2023-01-08T12:28:02.266Z,97462.00
2023-01-08T12:30:38.460Z,97457.63
2023-01-08T12:33:10.687Z,97452.94
2023-01-08T12:35:41.941Z,97459.94
2023-01-08T12:38:12.617Z,97447.38
2023-01-08T12:40:42.108Z,97449.91
2023-01-08T12:43:14.975Z,97457.31
2023-01-08T12:45:45.572Z,97467.63
2023-01-08T12:48:16.245Z,97470.81
2023-01-08T12:50:52.704Z,97464.38
2023-01-08T12:53:26.717Z,97446.06
2023-01-08T12:56:03.624Z,97454.16
2023-01-08T12:58:35.271Z,97454.28
2023-01-08T13:01:12.717Z,97463.56
2023-01-08T13:03:41.107Z,97430.25
2023-01-08T13:06:12.141Z,97451.34
2023-01-08T13:08:41.893Z,97450.28
2023-01-08T13:11:10.243Z,97438.50
2023-01-08T13:13:41.790Z,97432.25
2023-01-08T13:16:18.359Z,97428.00
2023-01-08T13:18:56.795Z,97412.41
2023-01-08T13:21:33.489Z,97420.59
2023-01-08T13:24:02.734Z,97420.13
2023-01-08T13:26:31.735Z,97419.13
2023-01-08T13:29:18.435Z,97427.06
2023-01-08T13:31:46.586Z,97416.84
2023-01-08T13:34:22.765Z,97422.47
2023-01-08T13:36:58.485Z,97405.19
2023-01-08T13:39:32.828Z,97392.16
2023-01-08T13:42:02.805Z,97396.84
2023-01-08T13:44:31.660Z,97392.72
2023-01-08T13:47:01.440Z,97393.84
2023-01-08T13:49:36.317Z,97390.56
2023-01-08T13:52:06.409Z,97384.06
2023-01-08T13:54:38.748Z,97378.78
2023-01-08T13:57:09.307Z,97380.72
2023-01-08T13:59:39.243Z,97386.34
2023-01-08T14:02:23.573Z,97386.84
2023-01-08T14:04:52.306Z,97378.94
2023-01-08T14:07:23.601Z,97369.25
2023-01-08T14:09:51.772Z,97369.63
2023-01-08T14:12:21.650Z,97360.34
2023-01-08T14:14:51.829Z,97355.38
2023-01-08T14:17:21.365Z,97355.25
2023-01-08T14:19:49.686Z,97364.00
2023-01-08T14:22:19.732Z,97357.09
2023-01-08T14:24:54.791Z,97336.66
2023-01-08T14:27:24.757Z,97355.19
2023-01-08T14:29:53.162Z,97352.44
2023-01-08T14:32:22.670Z,97342.06
2023-01-08T14:34:51.860Z,97353.03
2023-01-08T14:37:20.117Z,97353.63
2023-01-08T14:39:56.524Z,97347.16
2023-01-08T14:42:47.142Z,97356.53
2023-01-08T14:45:17.702Z,97355.78
2023-01-08T14:47:49.152Z,97349.50
2023-01-08T14:50:19.753Z,97345.81
2023-01-08T14:52:48.096Z,97318.31
2023-01-08T14:55:19.348Z,97342.50
2023-01-08T14:57:48.249Z,97339.72
2023-01-08T15:00:18.176Z,97336.41
2023-01-08T15:02:47.266Z,97332.28
2023-01-08T15:05:19.263Z,97327.06
2023-01-08T15:07:58.241Z,97331.16
2023-01-08T15:10:38.605Z,97321.97
2023-01-08T15:13:07.601Z,97318.88
2023-01-08T15:15:37.948Z,97321.00
2023-01-08T15:18:07.097Z,97325.13
2023-01-08T15:20:35.692Z,97318.66
2023-01-08T15:23:03.920Z,97317.34
2023-01-08T15:25:32.137Z,97308.41
2023-01-08T15:28:03.054Z,97306.38
2023-01-08T15:30:35.028Z,97302.63
2023-01-08T15:33:10.168Z,97299.28
2023-01-08T15:35:38.237Z,97294.13
2023-01-08T15:38:07.254Z,97291.38
2023-01-08T15:40:35.464Z,97289.13
2023-01-08T15:43:09.918Z,97300.00
2023-01-08T15:45:38.987Z,97292.97
2023-01-08T15:48:07.538Z,97299.19
2023-01-08T15:50:38.592Z,97300.19
2023-01-08T15:53:08.461Z,97301.13
2023-01-08T15:55:38.595Z,97294.72
2023-01-08T15:58:07.998Z,97285.19
2023-01-08T16:00:36.100Z,97286.03
2023-01-08T16:03:07.077Z,97289.00
2023-01-08T16:05:37.420Z,97277.22
2023-01-08T16:08:05.982Z,97265.13
2023-01-08T16:10:34.148Z,97268.22
2023-01-08T16:13:02.283Z,97269.13
2023-01-08T16:15:34.061Z,97259.94
2023-01-08T16:18:02.155Z,97261.97
2023-01-08T16:20:30.244Z,97240.66
2023-01-08T16:22:58.324Z,97264.28
2023-01-08T16:25:26.405Z,97255.44
2023-01-08T16:27:54.503Z,97266.41
2023-01-08T16:30:22.550Z,97252.63
2023-01-08T16:32:53.388Z,97245.78
2023-01-08T16:35:22.231Z,97239.78
2023-01-08T16:37:50.280Z,97235.38
2023-01-08T16:40:19.000Z,97236.97
2023-01-08T16:42:49.331Z,97229.72
2023-01-08T16:45:17.402Z,97225.44
2023-01-08T16:47:45.487Z,97211.91
2023-01-08T16:50:17.931Z,97214.03
2023-01-08T16:52:46.065Z,97221.22
2023-01-08T16:55:14.168Z,97177.50
2023-01-08T16:57:42.355Z,97223.03
2023-01-08T17:00:11.154Z,97227.91
2023-01-08T17:02:41.329Z,97229.13
2023-01-08T17:05:09.755Z,97221.31
2023-01-08T17:07:39.125Z,97215.00
2023-01-08T17:10:07.717Z,97206.78
2023-01-08T17:12:55.171Z,97198.91
2023-01-08T17:15:23.243Z,97183.03
2023-01-08T17:17:51.278Z,97189.59
2023-01-08T17:20:20.140Z,97178.75
2023-01-08T17:22:50.007Z,97169.00
2023-01-08T17:25:18.220Z,97155.25
2023-01-08T17:27:48.606Z,97151.19
2023-01-08T17:30:16.801Z,97150.47
2023-01-08T17:32:47.922Z,97151.28
2023-01-08T17:35:16.088Z,97133.72
2023-01-08T17:37:44.331Z,97144.00
2023-01-08T17:40:14.376Z,97139.34
2023-01-08T17:42:42.513Z,97134.03
2023-01-08T17:45:12.852Z,97144.56
2023-01-08T17:47:44.026Z,97147.50
2023-01-08T17:50:12.592Z,97147.03
2023-01-08T17:52:40.672Z,97140.91
2023-01-08T17:55:09.274Z,97136.72
2023-01-08T17:57:38.675Z,97135.69
2023-01-08T18:00:07.681Z,97135.13
2023-01-08T18:02:36.305Z,97119.69
2023-01-08T18:05:04.452Z,97115.78
2023-01-08T18:07:33.943Z,97092.22
2023-01-08T18:10:02.070Z,97114.88
2023-01-08T18:12:33.096Z,97111.50
2023-01-08T18:15:02.547Z,97108.69
2023-01-08T18:17:30.989Z,97111.34
2023-01-08T18:19:59.033Z,97101.47
2023-01-08T18:22:26.995Z,97105.06
2023-01-08T18:24:55.116Z,97106.03
2023-01-08T18:27:23.176Z,97109.44
2023-01-08T18:29:51.249Z,97094.34
2023-01-08T18:32:25.787Z,97092.50
2023-01-08T18:34:53.854Z,97082.84
2023-01-08T18:37:23.188Z,97077.13
2023-01-08T18:39:51.360Z,97081.06
2023-01-08T18:42:28.778Z,97078.56
2023-01-08T18:44:57.437Z,97085.44
2023-01-08T18:47:28.818Z,97082.34
2023-01-08T18:50:03.125Z,97077.47
2023-01-08T18:52:31.313Z,97077.72
2023-01-08T18:54:59.308Z,97076.41
2023-01-08T18:57:27.424Z,97067.59
2023-01-08T18:59:55.450Z,97065.84
2023-01-08T19:02:24.745Z,97065.59
2023-01-08T19:04:54.371Z,97057.13
2023-01-08T19:07:25.692Z,97051.09
2023-01-08T19:09:53.985Z,97053.34
2023-01-08T19:12:27.101Z,97040.50
2023-01-08T19:14:55.279Z,97051.28
2023-01-08T19:17:23.435Z,97050.91
2023-01-08T19:19:51.589Z,97043.41
2023-01-08T19:22:22.469Z,97036.84
2023-01-08T19:24:50.520Z,97028.25
2023-01-08T19:27:21.031Z,97031.00
2023-01-08T19:29:49.241Z,97023.44
2023-01-08T19:32:19.353Z,97017.97
2023-01-08T19:34:47.470Z,97005.75
2023-01-08T19:37:15.896Z,97001.31
2023-01-08T19:39:45.323Z,97000.75
2023-01-08T19:42:30.736Z,96989.25
2023-01-08T19:44:58.830Z,96985.63
2023-01-08T19:47:26.889Z,96982.44
2023-01-08T19:49:55.082Z,96987.09
2023-01-08T19:52:23.150Z,96986.84
2023-01-08T19:54:52.576Z,96977.31
2023-01-08T19:57:20.619Z,96978.56
2023-01-08T19:59:49.998Z,96977.03
2023-01-08T20:02:20.587Z,96939.59
2023-01-08T20:04:48.651Z,96976.56
2023-01-08T20:07:16.643Z,96962.34
2023-01-08T20:09:44.940Z,96966.59
2023-01-08T20:12:15.724Z,96970.81
2023-01-08T20:14:45.977Z,96965.03
2023-01-08T20:17:14.037Z,96969.72
2023-01-08T20:19:42.160Z,96975.81
2023-01-08T20:22:10.213Z,96978.41
2023-01-08T20:24:38.458Z,96984.69
2023-01-08T20:27:07.645Z,96975.94
2023-01-08T20:29:37.463Z,96982.69
2023-01-08T20:32:08.179Z,96980.09
2023-01-08T20:34:38.429Z,96985.31
2023-01-08T20:37:07.517Z,96976.34
2023-01-08T20:39:35.616Z,96981.34
2023-01-08T20:42:04.948Z,96985.50
2023-01-08T20:44:33.378Z,96977.94
2023-01-08T20:47:03.032Z,96978.81
2023-01-08T20:49:31.108Z,96979.44
2023-01-08T20:52:00.303Z,96976.97
2023-01-08T20:54:31.370Z,96976.19
2023-01-08T20:57:00.049Z,96950.78
2023-01-08T20:59:28.712Z,96972.72
2023-01-08T21:01:57.234Z,96974.59
2023-01-08T21:04:29.037Z,96973.44
2023-01-08T21:06:57.196Z,96972.41
2023-01-08T21:09:25.265Z,96966.78
2023-01-08T21:11:53.370Z,96972.63
2023-01-08T21:14:21.391Z,96970.25
2023-01-08T21:16:51.750Z,96963.88
2023-01-08T21:19:19.824Z,96956.53
2023-01-08T21:21:53.176Z,96954.56
2023-01-08T21:24:21.217Z,96945.56
2023-01-08T21:26:49.638Z,96950.75
2023-01-08T21:29:19.866Z,96948.28
2023-01-08T21:31:48.078Z,96939.53
2023-01-08T21:34:16.219Z,96938.84
2023-01-08T21:36:44.341Z,96933.13
2023-01-08T21:39:13.772Z,96921.16
2023-01-08T21:41:59.185Z,96926.09
2023-01-08T21:44:44.758Z,96913.06
2023-01-08T21:47:13.769Z,96915.78
2023-01-08T21:49:41.800Z,96910.19
2023-01-08T21:52:27.308Z,96908.75
2023-01-08T21:54:58.231Z,96900.56
2023-01-08T21:57:28.173Z,96895.44
2023-01-08T22:02:38.029Z,96875.03
2023-01-08T22:05:06.372Z,96872.22
2023-01-08T22:07:34.471Z,96871.91
2023-01-08T22:10:03.515Z,96871.41
2023-01-08T22:12:31.612Z,96872.28
2023-01-08T22:14:59.585Z,96869.38
2023-01-08T22:17:30.075Z,96874.59
2023-01-08T22:20:01.318Z,96872.84
2023-01-08T22:22:29.555Z,96867.22
2023-01-08T22:24:57.642Z,96861.34
2023-01-08T22:27:25.693Z,96862.13
2023-01-08T22:29:54.495Z,96860.63
2023-01-08T22:32:22.572Z,96865.94
2023-01-08T22:34:51.215Z,96855.38
2023-01-08T22:37:22.130Z,96853.06
2023-01-08T22:39:50.592Z,96850.13
2023-01-08T22:42:18.746Z,96853.78
2023-01-08T22:44:46.822Z,96855.69
2023-01-08T22:47:14.948Z,96852.00
2023-01-08T22:49:43.043Z,96845.38
2023-01-08T22:52:11.406Z,96850.25
2023-01-08T22:54:40.753Z,96852.00
2023-01-08T22:57:08.840Z,96847.44
2023-01-08T22:59:36.963Z,96839.63
2023-01-08T23:02:05.152Z,96831.75
2023-01-08T23:04:33.179Z,96843.25
2023-01-08T23:07:01.178Z,96835.88
2023-01-08T23:09:31.735Z,96855.63
2023-01-08T23:12:03.450Z,96856.75
2023-01-08T23:14:33.673Z,96853.78
2023-01-08T23:17:01.723Z,96847.81
2023-01-08T23:19:29.760Z,96851.63
2023-01-08T23:21:57.905Z,96850.69
2023-01-08T23:24:27.632Z,96861.88
2023-01-08T23:26:56.583Z,96853.88
2023-01-08T23:29:29.370Z,96857.75
2023-01-08T23:31:57.746Z,96863.38
2023-01-08T23:34:26.450Z,96865.19
2023-01-08T23:36:56.792Z,96868.22
2023-01-08T23:39:26.555Z,96870.41
2023-01-08T23:41:54.704Z,96874.16
2023-01-08T23:44:26.140Z,96860.84
2023-01-08T23:46:54.176Z,96855.31
2023-01-08T23:49:24.276Z,96850.34
2023-01-08T23:51:52.360Z,96852.41
2023-01-08T23:54:20.464Z,96847.06
2023-01-08T23:56:48.910Z,96839.31
2023-01-08T23:59:16.936Z,96837.94
